Time;durP1;ratioP1;P1;durP2;ratioP2;P2;SDS_P1;SDS_P2;PMS_P1;PMS_P2;Temp;Humidity;BMP_temperature;BMP_pressure;BME280_temperature;BME280_humidity;BME280_pressure;Samples;Min_cycle;Max_cycle;Signal;HPM_P1;HPM_P2
2023/10/22 00:00:11;;;;;;;19.27;17.47;;;10.80;85.10;;;;;;6266730;28;20254;-83
2023/10/22 00:03:16;;;;;;;21.00;18.30;;;10.80;85.10;;;;;;6254468;28;20282;-83
2023/10/22 00:06:19;;;;;;;23.93;19.80;;;10.80;85.10;;;;;;6253336;28;20312;-81
2023/10/22 00:09:22;;;;;;;22.60;19.27;;;10.80;85.10;;;;;;6246894;28;20863;-80
2023/10/22 00:12:25;;;;;;;21.10;18.97;;;10.80;85.10;;;;;;6230201;28;20244;-82
2023/10/22 00:15:28;;;;;;;21.20;18.87;;;10.80;85.10;;;;;;6250297;28;20320;-82
2023/10/22 00:18:33;;;;;;;23.37;20.37;;;10.80;85.20;;;;;;6245048;28;20235;-82
2023/10/22 00:21:36;;;;;;;27.33;23.73;;;10.80;85.20;;;;;;6239999;28;20238;-84
2023/10/22 00:24:40;;;;;;;22.13;19.80;;;10.90;85.20;;;;;;6236730;28;20242;-82
2023/10/22 00:27:44;;;;;;;21.43;19.27;;;10.90;85.20;;;;;;6253814;28;20308;-83
2023/10/22 00:30:48;;;;;;;21.13;18.93;;;10.90;85.20;;;;;;6245721;28;20230;-82
2023/10/22 00:33:53;;;;;;;20.53;18.53;;;10.90;85.20;;;;;;6258582;28;20235;-82
2023/10/22 00:36:56;;;;;;;23.63;21.43;;;10.90;85.10;;;;;;6256641;28;20242;-83
2023/10/22 00:39:59;;;;;;;19.57;17.67;;;10.90;85.10;;;;;;6252461;28;20253;-84
2023/10/22 00:43:05;;;;;;;20.33;18.23;;;10.90;85.10;;;;;;6242866;28;20234;-81
2023/10/22 00:46:08;;;;;;;19.33;17.53;;;10.90;85.10;;;;;;6243401;28;20303;-84
2023/10/22 00:49:14;;;;;;;19.80;17.93;;;10.90;85.10;;;;;;6243749;28;20306;-81
2023/10/22 00:52:18;;;;;;;19.47;17.40;;;10.90;85.10;;;;;;6237051;28;20269;-85
2023/10/22 00:55:23;;;;;;;20.20;18.20;;;10.90;85.10;;;;;;6232683;28;20235;-84
2023/10/22 00:58:27;;;;;;;29.90;24.53;;;10.90;85.10;;;;;;6238155;28;20833;-83
2023/10/22 01:01:32;;;;;;;24.63;22.10;;;10.90;85.40;;;;;;6254518;28;20234;-84
2023/10/22 01:04:37;;;;;;;23.57;21.27;;;11.00;85.30;;;;;;6252757;28;20231;-81
2023/10/22 01:07:41;;;;;;;23.17;20.77;;;11.00;85.30;;;;;;6246180;28;20238;-84
2023/10/22 01:10:44;;;;;;;22.87;20.63;;;11.00;85.20;;;;;;6238887;28;20301;-85
2023/10/22 01:13:47;;;;;;;21.63;19.40;;;11.00;85.20;;;;;;6237817;28;20264;-85
2023/10/22 01:16:51;;;;;;;20.07;18.10;;;11.00;85.20;;;;;;6258847;28;20325;-83
2023/10/22 01:19:55;;;;;;;20.57;18.57;;;11.00;85.10;;;;;;6262823;28;20925;-84
2023/10/22 01:23:01;;;;;;;20.17;18.07;;;11.00;85.10;;;;;;6250126;28;20245;-83
2023/10/22 01:26:06;;;;;;;19.03;17.20;;;11.00;85.00;;;;;;6238949;28;20230;-82
2023/10/22 01:29:10;;;;;;;19.77;17.83;;;11.00;85.00;;;;;;6252827;28;20222;-85
2023/10/22 01:32:13;;;;;;;19.97;17.87;;;11.00;85.00;;;;;;6262896;28;20364;-83
2023/10/22 01:35:16;;;;;;;18.03;16.43;;;11.00;85.00;;;;;;6245298;28;20237;-83
2023/10/22 01:38:20;;;;;;;18.97;17.33;;;11.00;85.00;;;;;;6250857;28;20604;-83
2023/10/22 01:41:27;;;;;;;17.80;16.30;;;11.00;85.00;;;;;;6237487;28;20869;-82
2023/10/22 01:44:30;;;;;;;19.40;17.47;;;10.90;85.00;;;;;;6230537;28;21451;-83
2023/10/22 01:47:33;;;;;;;18.50;16.80;;;10.90;85.00;;;;;;6242744;28;20246;-83
2023/10/22 01:50:36;;;;;;;16.47;14.97;;;10.90;85.10;;;;;;6247814;28;20264;-82
2023/10/22 01:53:41;;;;;;;18.63;16.83;;;11.00;85.00;;;;;;6244716;28;20234;-82
2023/10/22 01:56:47;;;;;;;17.70;16.10;;;11.00;85.00;;;;;;6253411;28;20229;-83
2023/10/22 01:59:50;;;;;;;19.43;17.50;;;11.00;85.10;;;;;;6266262;28;20226;-83
2023/10/22 02:02:53;;;;;;;18.13;16.43;;;11.00;85.10;;;;;;6248417;28;20235;-83
2023/10/22 02:05:57;;;;;;;19.80;17.90;;;11.00;85.10;;;;;;6253557;28;20279;-83
2023/10/22 02:09:01;;;;;;;19.23;17.27;;;11.00;85.10;;;;;;6252635;28;20242;-83
2023/10/22 02:12:06;;;;;;;17.60;15.80;;;11.00;85.10;;;;;;6256587;28;20230;-83
2023/10/22 02:15:10;;;;;;;17.43;15.80;;;11.00;85.00;;;;;;6257455;28;20285;-84
2023/10/22 02:18:14;;;;;;;16.93;15.33;;;11.00;85.10;;;;;;6233358;28;20239;-84
2023/10/22 02:21:19;;;;;;;17.07;15.57;;;11.00;85.00;;;;;;6248361;28;20237;-81
2023/10/22 02:24:22;;;;;;;21.07;17.73;;;11.00;85.00;;;;;;6255203;28;25324;-81
2023/10/22 02:27:29;;;;;;;19.30;17.40;;;11.10;85.00;;;;;;6249590;28;20238;-84
2023/10/22 02:30:34;;;;;;;17.63;15.93;;;11.10;85.00;;;;;;6250045;28;20238;-82
2023/10/22 02:33:39;;;;;;;16.73;15.33;;;11.00;85.10;;;;;;6263023;28;20733;-83
2023/10/22 02:36:43;;;;;;;17.93;16.23;;;11.00;85.10;;;;;;6238863;28;20277;-81
2023/10/22 02:39:57;;;;;;;18.23;16.20;;;11.10;85.00;;;;;;6224463;28;20235;-82
2023/10/22 02:43:02;;;;;;;18.03;16.43;;;11.10;85.10;;;;;;6228993;28;20226;-80
2023/10/22 02:46:06;;;;;;;18.00;16.23;;;11.10;85.10;;;;;;6239059;28;20235;-83
2023/10/22 02:49:09;;;;;;;17.30;15.80;;;11.10;85.10;;;;;;6232352;28;20235;-82
2023/10/22 02:52:12;;;;;;;19.13;17.13;;;11.10;85.10;;;;;;6217217;28;20243;-84
2023/10/22 02:55:15;;;;;;;19.40;17.50;;;11.10;85.10;;;;;;6223632;28;21001;-83
2023/10/22 02:58:20;;;;;;;17.13;15.53;;;11.10;85.10;;;;;;6230123;28;20723;-82
2023/10/22 03:01:23;;;;;;;17.07;15.47;;;11.10;85.00;;;;;;6230926;28;20243;-86
2023/10/22 03:04:27;;;;;;;14.50;13.20;;;11.10;85.10;;;;;;6239920;28;20381;-85
2023/10/22 03:07:31;;;;;;;14.40;12.97;;;11.10;85.20;;;;;;6234512;28;20242;-82
2023/10/22 03:10:37;;;;;;;13.93;12.83;;;11.10;85.10;;;;;;6232525;28;20374;-82
2023/10/22 03:13:42;;;;;;;15.70;14.40;;;11.10;85.10;;;;;;6226370;28;20240;-82
2023/10/22 03:16:45;;;;;;;14.53;13.23;;;11.10;85.10;;;;;;6227148;28;20262;-83
2023/10/22 03:19:48;;;;;;;13.23;12.03;;;11.10;85.20;;;;;;6221161;28;20856;-81
2023/10/22 03:22:52;;;;;;;13.40;12.20;;;11.10;85.30;;;;;;6215264;28;20239;-82
2023/10/22 03:26:05;;;;;;;10.47;9.77;;;11.10;85.20;;;;;;6242064;28;20226;-83
2023/10/22 03:29:10;;;;;;;11.47;10.67;;;11.10;85.50;;;;;;6248141;28;20246;-85
2023/10/22 03:32:14;;;;;;;11.30;10.17;;;11.10;85.60;;;;;;6235006;28;20771;-83
2023/10/22 03:35:17;;;;;;;10.83;9.93;;;11.10;85.50;;;;;;6245805;28;20310;-83
2023/10/22 03:38:20;;;;;;;8.77;8.27;;;11.10;85.50;;;;;;6253186;28;20319;-84
2023/10/22 03:41:24;;;;;;;9.30;8.60;;;11.10;85.50;;;;;;6240262;28;20235;-82
2023/10/22 03:44:29;;;;;;;8.57;7.97;;;11.20;85.50;;;;;;6239038;28;20243;-83
2023/10/22 03:47:32;;;;;;;7.80;7.20;;;11.30;85.60;;;;;;6230381;28;20239;-82
2023/10/22 03:50:35;;;;;;;8.10;7.43;;;11.30;85.50;;;;;;6232349;28;20262;-83
2023/10/22 03:53:38;;;;;;;8.97;8.20;;;11.30;85.50;;;;;;6225833;28;20239;-83
2023/10/22 03:56:41;;;;;;;7.97;7.40;;;11.30;85.60;;;;;;6224443;28;20226;-85
2023/10/22 03:59:46;;;;;;;7.63;7.13;;;11.30;85.60;;;;;;6231297;28;20724;-84
2023/10/22 04:02:49;;;;;;;7.23;6.83;;;11.30;85.60;;;;;;6224405;28;20242;-84
2023/10/22 04:05:57;;;;;;;7.33;6.93;;;11.30;85.60;;;;;;6236233;28;20238;-83
2023/10/22 04:09:00;;;;;;;7.30;6.60;;;11.30;85.70;;;;;;6228815;28;20234;-85
2023/10/22 04:12:04;;;;;;;7.50;6.83;;;11.20;85.70;;;;;;6225223;28;20243;-85
2023/10/22 04:15:10;;;;;;;6.67;6.37;;;11.30;85.80;;;;;;6223715;28;20242;-84
2023/10/22 04:18:14;;;;;;;6.87;6.43;;;11.20;85.80;;;;;;6228325;28;20714;-84
2023/10/22 04:21:18;;;;;;;7.60;7.10;;;11.20;85.90;;;;;;6232516;28;20235;-86
2023/10/22 04:24:21;;;;;;;6.73;6.37;;;11.20;86.00;;;;;;6229573;28;20455;-83
2023/10/22 04:27:24;;;;;;;8.83;8.00;;;11.20;85.90;;;;;;6236598;28;20244;-85
2023/10/22 04:30:29;;;;;;;7.30;6.80;;;11.20;86.00;;;;;;6250327;28;20329;-83
2023/10/22 04:33:32;;;;;;;7.87;7.27;;;11.20;86.10;;;;;;6241065;28;21872;-83
2023/10/22 04:36:35;;;;;;;7.30;6.90;;;11.20;86.00;;;;;;6245045;28;20237;-82
2023/10/22 04:39:39;;;;;;;7.20;6.70;;;11.10;86.20;;;;;;6251297;28;20241;-81
2023/10/22 04:42:42;;;;;;;6.80;6.50;;;11.10;86.20;;;;;;6230010;28;20732;-83
2023/10/22 04:45:50;;;;;;;6.67;6.37;;;11.10;86.10;;;;;;6227028;28;20246;-83
2023/10/22 04:48:54;;;;;;;6.87;6.57;;;11.10;86.10;;;;;;6231884;28;20237;-85
2023/10/22 04:51:57;;;;;;;7.40;6.90;;;11.10;86.10;;;;;;6231373;28;20239;-83
2023/10/22 04:55:11;;;;;;;7.97;7.57;;;11.10;86.00;;;;;;6221030;28;20461;-83
2023/10/22 04:58:15;;;;;;;7.40;6.90;;;11.10;86.40;;;;;;6224113;28;20266;-84
2023/10/22 05:01:19;;;;;;;7.57;7.17;;;11.10;86.30;;;;;;6224132;28;20249;-82
2023/10/22 05:04:22;;;;;;;7.40;7.00;;;11.10;86.30;;;;;;6239534;28;20239;-84
2023/10/22 05:07:26;;;;;;;8.10;7.43;;;11.10;86.30;;;;;;6233707;28;20239;-85
2023/10/22 05:10:29;;;;;;;7.00;6.40;;;11.10;86.50;;;;;;6228960;28;20242;-83
2023/10/22 05:13:32;;;;;;;6.60;6.17;;;11.10;86.30;;;;;;6231876;28;20868;-83
2023/10/22 05:16:36;;;;;;;6.83;6.37;;;11.10;86.30;;;;;;6224324;28;20329;-83
2023/10/22 05:19:39;;;;;;;7.17;6.70;;;11.10;86.40;;;;;;6215645;28;20247;-80
2023/10/22 05:22:46;;;;;;;8.23;7.67;;;11.10;86.40;;;;;;6220361;28;20231;-81
2023/10/22 05:25:49;;;;;;;7.70;7.10;;;11.10;86.70;;;;;;6216019;28;20246;-83
2023/10/22 05:28:54;;;;;;;7.30;6.90;;;11.10;86.70;;;;;;6228912;28;20882;-81
2023/10/22 05:31:59;;;;;;;7.23;6.83;;;11.10;86.60;;;;;;6225333;28;20265;-86
2023/10/22 05:35:03;;;;;;;6.67;6.30;;;11.10;86.60;;;;;;6225319;28;20290;-81
2023/10/22 05:38:06;;;;;;;7.07;6.73;;;11.10;86.60;;;;;;6228624;28;20248;-82
2023/10/22 05:41:10;;;;;;;6.97;6.57;;;11.10;86.60;;;;;;6244086;28;20257;-80
2023/10/22 05:44:13;;;;;;;7.47;6.97;;;11.10;86.60;;;;;;6228584;28;20237;-83
2023/10/22 05:47:18;;;;;;;7.40;6.97;;;11.10;86.60;;;;;;6235041;28;20242;-83
2023/10/22 05:50:21;;;;;;;7.23;6.73;;;11.10;86.70;;;;;;6222774;28;20296;-81
2023/10/22 05:53:24;;;;;;;6.70;6.40;;;11.10;86.60;;;;;;6231529;28;20369;-83
2023/10/22 05:56:28;;;;;;;6.30;6.00;;;11.10;86.60;;;;;;6228932;28;20312;-79
2023/10/22 05:59:33;;;;;;;7.07;6.50;;;11.10;86.60;;;;;;6226708;28;20230;-81
2023/10/22 06:02:38;;;;;;;6.63;6.33;;;11.00;86.60;;;;;;6238295;28;20325;-79
2023/10/22 06:05:41;;;;;;;6.90;6.57;;;11.10;86.70;;;;;;6220582;28;20849;-81
2023/10/22 06:08:45;;;;;;;6.03;5.83;;;11.00;86.70;;;;;;6237462;28;20236;-82
2023/10/22 06:11:48;;;;;;;6.40;6.10;;;11.00;86.70;;;;;;6234158;28;20372;-82
2023/10/22 06:14:51;;;;;;;6.20;5.93;;;11.00;86.70;;;;;;6233227;28;20269;-81
2023/10/22 06:17:56;;;;;;;6.53;6.10;;;11.00;86.70;;;;;;6228325;28;20247;-82
2023/10/22 06:21:00;;;;;;;6.90;6.43;;;11.00;86.70;;;;;;6238200;28;20228;-85
2023/10/22 06:24:03;;;;;;;7.90;7.40;;;11.10;86.70;;;;;;6227120;28;20262;-81
2023/10/22 06:27:07;;;;;;;6.80;6.50;;;11.10;86.80;;;;;;6215238;28;20233;-80
2023/10/22 06:30:11;;;;;;;7.63;7.10;;;11.10;86.70;;;;;;6252340;28;20321;-79
2023/10/22 06:33:16;;;;;;;7.60;7.20;;;11.10;86.80;;;;;;6252943;28;20359;-81
2023/10/22 06:36:22;;;;;;;7.10;6.70;;;11.10;86.90;;;;;;6253172;28;20254;-82
2023/10/22 06:39:25;;;;;;;9.83;9.03;;;11.10;86.90;;;;;;6243905;28;20340;-84
2023/10/22 06:42:29;;;;;;;7.30;6.70;;;11.10;86.90;;;;;;6243251;28;20373;-83
2023/10/22 06:45:32;;;;;;;6.70;6.40;;;11.10;86.90;;;;;;6252379;28;20800;-83
2023/10/22 06:48:37;;;;;;;7.47;6.87;;;11.10;86.80;;;;;;6244772;28;20257;-83
2023/10/22 06:51:40;;;;;;;7.40;7.00;;;11.10;86.80;;;;;;6249205;28;20251;-81
2023/10/22 06:54:43;;;;;;;7.20;6.90;;;11.10;86.80;;;;;;6237566;28;20281;-83
2023/10/22 06:57:47;;;;;;;7.87;7.47;;;11.10;86.70;;;;;;6242868;28;20762;-81
2023/10/22 07:00:50;;;;;;;9.80;8.90;;;11.10;86.80;;;;;;6255248;28;20711;-82
2023/10/22 07:03:54;;;;;;;9.60;8.80;;;11.10;86.90;;;;;;6248104;28;20238;-83
2023/10/22 07:06:57;;;;;;;9.80;9.10;;;11.10;87.00;;;;;;6234999;28;20745;-79
2023/10/22 07:10:00;;;;;;;11.47;10.40;;;11.10;87.20;;;;;;6250039;28;20242;-82
2023/10/22 07:13:03;;;;;;;10.00;9.30;;;11.20;87.00;;;;;;6242661;28;20304;-81
2023/10/22 07:16:08;;;;;;;10.43;9.73;;;11.10;87.00;;;;;;6248630;28;20344;-80
2023/10/22 07:19:12;;;;;;;9.77;9.07;;;11.20;87.10;;;;;;6258868;28;20241;-79
2023/10/22 07:22:16;;;;;;;9.83;9.10;;;11.10;87.20;;;;;;6262298;28;20329;-82
2023/10/22 07:25:19;;;;;;;8.47;7.93;;;11.20;87.30;;;;;;6234349;28;20317;-82
2023/10/22 07:28:22;;;;;;;8.93;8.33;;;11.30;87.50;;;;;;6220896;28;20232;-82
2023/10/22 07:31:25;;;;;;;8.80;8.20;;;11.30;87.40;;;;;;6223677;28;20278;-84
2023/10/22 07:34:30;;;;;;;8.07;7.33;;;11.40;87.20;;;;;;6233064;28;20793;-82
2023/10/22 07:37:33;;;;;;;7.33;6.93;;;11.50;87.20;;;;;;6235060;28;20305;-82
2023/10/22 07:40:37;;;;;;;7.17;6.73;;;11.50;87.30;;;;;;6239689;28;20240;-78
2023/10/22 07:43:40;;;;;;;9.07;8.23;;;11.60;87.40;;;;;;6232001;28;20244;-83
2023/10/22 07:46:43;;;;;;;8.17;7.47;;;11.70;87.30;;;;;;6219552;28;20242;-81
2023/10/22 07:49:52;;;;;;;8.37;7.77;;;11.90;87.30;;;;;;6230248;28;20816;-82
2023/10/22 07:52:56;;;;;;;7.17;6.77;;;11.90;87.10;;;;;;6239207;28;20305;-80
2023/10/22 07:55:59;;;;;;;7.00;6.33;;;12.10;86.90;;;;;;6234039;28;20260;-79
2023/10/22 07:59:02;;;;;;;6.30;5.80;;;12.20;87.00;;;;;;6228923;28;20338;-82
2023/10/22 08:02:05;;;;;;;6.37;6.00;;;12.40;85.70;;;;;;6225809;28;20235;-79
2023/10/22 08:05:10;;;;;;;6.20;5.80;;;12.50;85.40;;;;;;6218927;28;20242;-81
2023/10/22 08:08:13;;;;;;;6.23;5.63;;;12.70;85.40;;;;;;6231792;28;20261;-83
2023/10/22 08:11:16;;;;;;;6.07;5.73;;;12.80;85.00;;;;;;6223730;28;20227;-83
2023/10/22 08:14:20;;;;;;;5.97;5.40;;;13.00;84.90;;;;;;6235309;28;20286;-83
2023/10/22 08:17:23;;;;;;;4.97;4.73;;;13.00;82.30;;;;;;6234995;28;20720;-84
2023/10/22 08:20:27;;;;;;;5.03;4.70;;;13.10;83.00;;;;;;6232942;28;20245;-80
2023/10/22 08:23:31;;;;;;;4.83;4.63;;;13.20;80.70;;;;;;6222988;28;20396;-82
2023/10/22 08:26:34;;;;;;;4.53;4.23;;;13.30;80.30;;;;;;6233018;28;20296;-84
2023/10/22 08:29:38;;;;;;;4.27;4.17;;;13.40;80.30;;;;;;6226431;28;20265;-84
2023/10/22 08:32:46;;;;;;;4.10;3.87;;;13.30;79.20;;;;;;6238529;28;20309;-84
2023/10/22 08:35:52;;;;;;;4.40;4.10;;;13.50;79.20;;;;;;6244423;28;20238;-79
2023/10/22 08:38:55;;;;;;;3.97;3.67;;;13.60;79.10;;;;;;6251611;28;20261;-82
2023/10/22 08:42:02;;;;;;;3.37;3.27;;;13.70;78.10;;;;;;6248149;28;20238;-82
2023/10/22 08:45:08;;;;;;;3.57;3.57;;;13.70;78.40;;;;;;6240423;28;20338;-83
2023/10/22 08:48:11;;;;;;;3.70;3.60;;;13.90;78.00;;;;;;6243720;28;20233;-82
2023/10/22 08:51:17;;;;;;;3.33;2.93;;;13.90;78.50;;;;;;6249971;28;20234;-83
2023/10/22 08:54:22;;;;;;;6.90;6.23;;;13.90;77.30;;;;;;6250422;28;20239;-83
2023/10/22 08:57:26;;;;;;;3.27;3.17;;;13.90;77.50;;;;;;6250402;28;20238;-80
2023/10/22 09:00:31;;;;;;;3.30;3.03;;;13.90;76.80;;;;;;6258625;28;20238;-82
2023/10/22 09:03:35;;;;;;;3.10;3.00;;;13.90;76.80;;;;;;6247849;28;20238;-83
2023/10/22 09:06:39;;;;;;;3.30;3.00;;;13.90;76.50;;;;;;6245165;28;20334;-80
2023/10/22 09:09:43;;;;;;;3.20;3.10;;;13.90;76.50;;;;;;6224027;28;20226;-86
2023/10/22 09:12:46;;;;;;;3.03;2.83;;;13.80;76.90;;;;;;6230215;28;20233;-83
2023/10/22 09:15:52;;;;;;;2.90;2.70;;;13.90;77.00;;;;;;6229595;28;20684;-83
2023/10/22 09:18:55;;;;;;;2.93;2.83;;;13.90;77.00;;;;;;6222336;28;20234;-84
2023/10/22 09:22:01;;;;;;;3.20;3.00;;;14.10;76.80;;;;;;6214479;28;20281;-84
2023/10/22 09:25:05;;;;;;;3.50;3.23;;;14.20;76.90;;;;;;6227411;28;20246;-81
2023/10/22 09:28:16;;;;;;;2.80;2.70;;;14.30;76.90;;;;;;6226168;28;20235;-83
2023/10/22 09:31:25;;;;;;;3.03;2.93;;;14.30;76.40;;;;;;6217654;28;20327;-84
2023/10/22 09:34:30;;;;;;;3.30;3.10;;;14.20;75.70;;;;;;6209374;28;20258;-82
2023/10/22 09:37:50;;;;;;;3.40;3.10;;;14.20;75.80;;;;;;6217320;28;20385;-85
2023/10/22 09:40:53;;;;;;;3.33;3.07;;;14.10;75.60;;;;;;6218643;28;20231;-84
2023/10/22 09:43:58;;;;;;;3.70;3.00;;;14.10;75.80;;;;;;6232520;28;20284;-81
2023/10/22 09:47:12;;;;;;;4.30;3.30;;;13.90;75.90;;;;;;6207838;28;20246;-85
2023/10/22 09:50:18;;;;;;;3.30;3.10;;;13.90;76.20;;;;;;6240451;28;20225;-82
2023/10/22 09:53:27;;;;;;;3.60;3.30;;;13.80;76.30;;;;;;6224129;28;20235;-81
2023/10/22 09:56:33;;;;;;;4.00;3.70;;;13.70;76.30;;;;;;6227360;28;20615;-82
2023/10/22 09:59:37;;;;;;;3.90;3.50;;;13.70;76.10;;;;;;6215892;28;20231;-83
2023/10/22 10:02:41;;;;;;;4.10;3.90;;;13.80;75.70;;;;;;6220658;28;20239;-80
2023/10/22 10:05:44;;;;;;;6.73;5.80;;;13.60;76.40;;;;;;6235274;28;20246;-82
2023/10/22 10:08:49;;;;;;;3.93;3.60;;;13.70;76.60;;;;;;6233950;28;20239;-84
2023/10/22 10:11:54;;;;;;;3.33;3.23;;;13.70;75.90;;;;;;6240719;28;20242;-81
2023/10/22 10:14:57;;;;;;;3.47;3.27;;;13.90;76.10;;;;;;6220896;28;20243;-80
2023/10/22 10:18:01;;;;;;;3.23;3.03;;;13.70;75.70;;;;;;6212291;28;20617;-80
2023/10/22 10:21:39;;;;;;;3.20;3.10;;;13.80;76.20;;;;;;6212516;28;20653;-84
2023/10/22 10:24:44;;;;;;;3.33;3.23;;;14.00;76.10;;;;;;6255197;28;20723;-82
2023/10/22 10:27:51;;;;;;;3.30;3.20;;;14.10;75.50;;;;;;6252563;28;20317;-82
2023/10/22 10:31:14;;;;;;;3.63;3.20;;;14.20;75.10;;;;;;6239762;28;20304;-81
2023/10/22 10:34:32;;;;;;;3.63;3.33;;;14.20;74.30;;;;;;6253475;28;20234;-83
2023/10/22 10:37:35;;;;;;;3.37;3.00;;;14.10;74.60;;;;;;6250572;28;20238;-77
2023/10/22 10:40:45;;;;;;;3.20;3.00;;;14.10;74.10;;;;;;6249536;28;20238;-81
2023/10/22 10:44:08;;;;;;;3.00;2.90;;;13.90;74.20;;;;;;6245231;28;20234;-79
2023/10/22 10:47:32;;;;;;;3.20;3.00;;;13.90;74.20;;;;;;6231426;28;20614;-84
2023/10/22 10:50:36;;;;;;;3.20;3.00;;;14.00;74.00;;;;;;6219510;28;20232;-81
2023/10/22 10:54:18;;;;;;;5.00;3.13;;;14.10;73.60;;;;;;6211293;28;20338;-81
2023/10/22 10:57:35;;;;;;;3.77;3.57;;;14.10;73.30;;;;;;6239457;28;20873;-81
2023/10/22 11:00:38;;;;;;;3.23;3.03;;;14.20;73.60;;;;;;6245572;28;20698;-81
2023/10/22 11:04:07;;;;;;;3.70;3.50;;;14.30;73.30;;;;;;6234536;28;20234;-81
2023/10/22 11:07:10;;;;;;;2.93;2.73;;;14.50;72.80;;;;;;6242637;28;20691;-83
2023/10/22 11:10:29;;;;;;;3.40;2.90;;;14.70;72.10;;;;;;6259923;28;20321;-84
2023/10/22 11:13:34;;;;;;;5.23;2.67;;;14.80;72.20;;;;;;6248073;28;20764;-81
2023/10/22 11:16:51;;;;;;;3.10;2.90;;;14.90;72.40;;;;;;6238985;28;20270;-83
2023/10/22 11:19:54;;;;;;;2.73;2.53;;;15.00;72.50;;;;;;6245261;28;20258;-82
2023/10/22 11:22:58;;;;;;;3.40;2.80;;;15.20;72.20;;;;;;6235332;28;20301;-82
2023/10/22 11:26:01;;;;;;;3.60;2.57;;;15.20;71.30;;;;;;6246702;28;20798;-79
2023/10/22 11:29:06;;;;;;;2.60;2.50;;;15.00;70.10;;;;;;6240051;28;20245;-82
2023/10/22 11:32:13;;;;;;;4.10;2.60;;;15.10;69.60;;;;;;6248757;28;20301;-83
2023/10/22 11:35:16;;;;;;;3.30;2.63;;;15.30;69.00;;;;;;6250052;28;20230;-80
2023/10/22 11:38:23;;;;;;;2.80;2.60;;;15.50;68.20;;;;;;6274795;28;20229;-79
2023/10/22 11:41:26;;;;;;;2.10;2.00;;;15.60;67.40;;;;;;6278102;28;20241;-80
2023/10/22 11:44:35;;;;;;;2.87;1.97;;;15.70;66.70;;;;;;6273331;28;20292;-79
2023/10/22 11:47:39;;;;;;;2.30;2.10;;;16.00;65.80;;;;;;6251275;28;20234;-83
2023/10/22 11:50:45;;;;;;;2.87;2.10;;;16.30;64.40;;;;;;6249243;28;20317;-82
2023/10/22 11:53:48;;;;;;;2.27;2.13;;;16.20;63.70;;;;;;6249761;28;20234;-83
2023/10/22 11:56:51;;;;;;;2.40;2.30;;;16.20;64.50;;;;;;6235267;28;20306;-80
2023/10/22 11:59:56;;;;;;;3.03;2.20;;;16.20;64.40;;;;;;6253472;28;20380;-79
2023/10/22 12:02:59;;;;;;;2.80;2.20;;;16.30;63.10;;;;;;6241214;28;20235;-83
2023/10/22 12:06:03;;;;;;;2.10;2.00;;;16.50;63.60;;;;;;6251853;28;20234;-83
2023/10/22 12:09:06;;;;;;;3.77;2.30;;;16.70;62.60;;;;;;6248638;28;20938;-81
2023/10/22 12:12:09;;;;;;;2.47;2.30;;;16.90;62.30;;;;;;6230628;28;20283;-80
2023/10/22 12:15:14;;;;;;;4.03;2.13;;;17.20;61.60;;;;;;6218436;28;20240;-81
2023/10/22 12:18:17;;;;;;;2.30;2.10;;;17.40;60.80;;;;;;6198709;28;20524;-84
2023/10/22 12:21:21;;;;;;;2.27;2.00;;;17.20;60.10;;;;;;6208988;28;20630;-80
2023/10/22 12:24:24;;;;;;;2.03;2.00;;;17.00;60.60;;;;;;6211278;28;20250;-75
2023/10/22 12:27:31;;;;;;;2.50;2.00;;;16.80;60.60;;;;;;6279723;28;20206;-77
2023/10/22 12:30:36;;;;;;;1.97;1.83;;;16.70;61.10;;;;;;6273777;28;20402;-75
2023/10/22 12:33:39;;;;;;;2.23;1.80;;;16.60;61.10;;;;;;6273156;28;20222;-79
2023/10/22 12:36:42;;;;;;;3.73;2.70;;;16.70;61.20;;;;;;6269000;28;20306;-77
2023/10/22 12:39:46;;;;;;;2.63;2.03;;;16.80;61.30;;;;;;6235181;28;20262;-80
2023/10/22 12:42:49;;;;;;;2.60;2.40;;;16.80;62.20;;;;;;6241396;28;20215;-76
2023/10/22 12:45:53;;;;;;;2.43;2.30;;;17.00;61.10;;;;;;6246956;28;20250;-79
2023/10/22 12:48:56;;;;;;;2.77;2.30;;;17.00;61.50;;;;;;6234018;28;20279;-80
2023/10/22 12:51:59;;;;;;;2.30;2.10;;;17.00;60.90;;;;;;6242495;28;20231;-80
2023/10/22 12:55:03;;;;;;;2.17;2.00;;;16.80;61.20;;;;;;6239840;28;20238;-79
2023/10/22 12:58:07;;;;;;;3.60;2.00;;;16.70;62.10;;;;;;6230509;28;20224;-81
2023/10/22 13:01:11;;;;;;;2.47;1.97;;;16.70;61.50;;;;;;6239618;28;20301;-81
2023/10/22 13:04:14;;;;;;;1.87;1.77;;;17.00;62.20;;;;;;6226331;28;20251;-79
2023/10/22 13:07:18;;;;;;;1.90;1.80;;;17.00;60.90;;;;;;6237941;28;20274;-78
2023/10/22 13:10:21;;;;;;;2.50;2.30;;;17.00;61.10;;;;;;6230725;28;20251;-80
2023/10/22 13:13:25;;;;;;;2.17;2.10;;;17.00;61.20;;;;;;6239826;28;20226;-80
2023/10/22 13:16:29;;;;;;;2.13;2.03;;;16.90;60.50;;;;;;6236108;28;20246;-79
2023/10/22 13:19:32;;;;;;;3.60;2.40;;;16.90;61.00;;;;;;6256934;28;20222;-80
2023/10/22 13:22:35;;;;;;;2.00;1.90;;;16.90;60.90;;;;;;6245015;28;20253;-77
2023/10/22 13:25:39;;;;;;;2.17;2.13;;;16.80;61.10;;;;;;6248096;28;20284;-80
2023/10/22 13:28:42;;;;;;;2.20;2.10;;;16.60;62.00;;;;;;6269069;28;20222;-86
2023/10/22 13:31:47;;;;;;;2.60;2.23;;;16.80;62.40;;;;;;6266009;28;20226;-80
2023/10/22 13:34:50;;;;;;;3.17;2.27;;;16.70;62.20;;;;;;6264920;28;20250;-80
2023/10/22 13:37:53;;;;;;;2.93;1.90;;;16.70;62.10;;;;;;6270561;28;20218;-80
2023/10/22 13:40:56;;;;;;;2.67;2.33;;;16.70;62.30;;;;;;6269356;28;20294;-80
2023/10/22 13:43:59;;;;;;;2.57;2.30;;;16.40;62.50;;;;;;6279686;28;20781;-79
2023/10/22 13:47:04;;;;;;;2.90;2.27;;;16.40;63.30;;;;;;6280981;28;20225;-77
2023/10/22 13:50:08;;;;;;;4.43;2.30;;;16.40;63.80;;;;;;6274459;28;20226;-77
2023/10/22 13:53:13;;;;;;;3.23;2.40;;;16.10;63.60;;;;;;6262610;28;20257;-80
2023/10/22 13:56:16;;;;;;;2.47;2.30;;;16.10;63.70;;;;;;6240204;28;20229;-82
2023/10/22 13:59:19;;;;;;;2.70;2.50;;;16.10;63.90;;;;;;6256329;28;20701;-83
2023/10/22 14:02:25;;;;;;;2.63;2.43;;;16.20;64.00;;;;;;6241011;28;20254;-82
2023/10/22 14:05:29;;;;;;;2.23;2.07;;;16.00;63.70;;;;;;6237024;28;20266;-82
2023/10/22 14:08:32;;;;;;;2.63;2.47;;;16.00;63.70;;;;;;6238940;28;20245;-85
2023/10/22 14:11:38;;;;;;;2.30;2.20;;;16.10;64.10;;;;;;6238492;28;20234;-82
2023/10/22 14:14:44;;;;;;;2.20;2.10;;;16.10;63.60;;;;;;6241879;28;20839;-83
2023/10/22 14:17:48;;;;;;;2.50;2.30;;;16.00;63.70;;;;;;6236253;28;21003;-81
2023/10/22 14:20:52;;;;;;;3.53;2.20;;;16.10;63.60;;;;;;6258248;28;20309;-82
2023/10/22 14:23:55;;;;;;;2.13;2.03;;;16.10;63.70;;;;;;6238831;28;20243;-80
2023/10/22 14:26:58;;;;;;;2.60;2.40;;;16.10;63.30;;;;;;6242709;28;20793;-80
2023/10/22 14:30:15;;;;;;;2.07;1.97;;;16.00;63.20;;;;;;6247424;28;20621;-81
2023/10/22 14:33:21;;;;;;;2.77;2.57;;;15.90;63.30;;;;;;6245361;28;20250;-82
2023/10/22 14:36:25;;;;;;;3.70;2.20;;;15.80;63.40;;;;;;6237502;28;20238;-82
2023/10/22 14:39:28;;;;;;;2.20;2.10;;;15.80;64.00;;;;;;6264367;28;20317;-82
2023/10/22 14:42:31;;;;;;;3.00;2.60;;;15.70;64.10;;;;;;6245623;28;20858;-82
2023/10/22 14:45:34;;;;;;;2.20;2.10;;;15.60;64.00;;;;;;6240928;28;20243;-84
2023/10/22 14:48:39;;;;;;;2.20;2.10;;;15.60;64.40;;;;;;6248981;28;20269;-79
2023/10/22 14:51:42;;;;;;;2.30;2.30;;;15.60;65.00;;;;;;6243016;28;20824;-83
2023/10/22 14:54:45;;;;;;;2.77;2.40;;;15.60;64.80;;;;;;6246130;28;20749;-83
2023/10/22 14:57:48;;;;;;;2.40;2.30;;;15.50;64.90;;;;;;6247424;28;20874;-84
2023/10/22 15:00:51;;;;;;;2.87;2.67;;;15.40;65.40;;;;;;6249706;28;20241;-83
2023/10/22 15:03:56;;;;;;;2.77;2.63;;;15.20;66.00;;;;;;6252269;28;20736;-83
2023/10/22 15:06:59;;;;;;;2.73;2.53;;;15.10;66.30;;;;;;6243520;28;20222;-81
2023/10/22 15:10:02;;;;;;;4.23;2.57;;;15.00;66.50;;;;;;6280185;28;20314;-81
2023/10/22 15:13:06;;;;;;;2.80;2.60;;;15.00;66.50;;;;;;6250088;28;20238;-78
2023/10/22 15:16:12;;;;;;;4.30;2.60;;;15.00;66.90;;;;;;6267072;28;20276;-82
2023/10/22 15:19:16;;;;;;;16.37;13.20;;;14.90;67.20;;;;;;6247026;28;20239;-84
2023/10/22 15:22:19;;;;;;;3.03;2.83;;;14.90;67.20;;;;;;6251243;28;20241;-81
2023/10/22 15:25:22;;;;;;;6.20;2.50;;;14.80;67.30;;;;;;6258046;28;20253;-80
2023/10/22 15:28:26;;;;;;;2.83;2.67;;;14.80;67.40;;;;;;6254671;28;20230;-81
2023/10/22 15:31:29;;;;;;;2.40;2.20;;;14.80;67.50;;;;;;6227755;28;20254;-80
2023/10/22 15:34:34;;;;;;;2.80;2.70;;;14.70;67.50;;;;;;6251071;28;20230;-80
2023/10/22 15:37:37;;;;;;;3.03;2.60;;;14.70;67.30;;;;;;6246858;28;20234;-80
2023/10/22 15:40:40;;;;;;;3.37;2.33;;;14.60;67.60;;;;;;6245800;28;20234;-81
2023/10/22 15:43:43;;;;;;;2.80;2.60;;;14.60;67.80;;;;;;6244439;28;20265;-83
2023/10/22 15:46:49;;;;;;;2.73;2.60;;;14.50;68.20;;;;;;6256640;28;20815;-82
2023/10/22 15:49:54;;;;;;;4.93;4.27;;;14.40;68.30;;;;;;6242015;28;20252;-81
2023/10/22 15:52:57;;;;;;;5.03;2.90;;;14.30;68.50;;;;;;6247691;28;20237;-82
2023/10/22 15:56:07;;;;;;;2.80;2.70;;;14.20;69.10;;;;;;6245545;28;20229;-82